createdAt,value
2019-04-16T00:00:15.342Z,99.90
2019-04-16T00:02:53.062Z,99.90
2019-04-16T00:05:32.101Z,99.90
2019-04-16T00:08:26.455Z,99.90
2019-04-16T00:11:11.488Z,99.90
2019-04-16T00:13:50.867Z,99.90
2019-04-16T00:16:22.567Z,99.90
2019-04-16T00:18:58.032Z,99.90
2019-04-16T00:21:46.553Z,99.90
2019-04-16T00:24:28.819Z,99.90
2019-04-16T00:27:00.727Z,99.90
2019-04-16T00:29:32.992Z,99.90
2019-04-16T00:32:15.265Z,99.90
2019-04-16T00:34:47.028Z,99.90
2019-04-16T00:37:21.344Z,99.90
2019-04-16T00:39:55.577Z,99.90
2019-04-16T00:42:25.855Z,99.90
2019-04-16T00:44:57.586Z,99.90
2019-04-16T00:47:29.442Z,99.90
2019-04-16T00:50:01.155Z,99.90
2019-04-16T00:52:36.649Z,99.90
2019-04-16T00:55:06.989Z,99.90
2019-04-16T00:57:38.679Z,99.90
2019-04-16T01:00:11.539Z,99.90
2019-04-16T01:02:43.124Z,99.90
2019-04-16T01:05:14.784Z,99.90
2019-04-16T01:07:46.599Z,99.90
2019-04-16T01:10:18.548Z,99.90
2019-04-16T01:12:50.601Z,99.90
2019-04-16T01:15:22.582Z,99.90
2019-04-16T01:17:54.115Z,99.90
2019-04-16T01:20:26.917Z,99.90
2019-04-16T01:22:58.599Z,99.90
2019-04-16T01:25:31.262Z,99.90
2019-04-16T01:28:04.775Z,99.90
2019-04-16T01:30:46.891Z,99.90
2019-04-16T01:33:25.284Z,99.90
2019-04-16T01:36:06.681Z,99.90
2019-04-16T01:39:14.731Z,99.90
2019-04-16T01:41:33.589Z,99.90
2019-04-16T01:44:05.359Z,99.90
2019-04-16T01:46:37.125Z,99.90
2019-04-16T01:49:10.250Z,99.90
2019-04-16T01:51:44.647Z,99.90
2019-04-16T01:54:16.064Z,99.90
2019-04-16T01:56:48.079Z,99.90
2019-04-16T01:59:19.980Z,99.90
2019-04-16T02:01:51.632Z,99.90
2019-04-16T02:04:24.246Z,99.90
2019-04-16T02:06:57.313Z,99.90
2019-04-16T02:09:34.152Z,99.90
2019-04-16T02:12:02.846Z,99.90
2019-04-16T02:14:34.504Z,99.90
2019-04-16T02:17:06.480Z,99.90
2019-04-16T02:19:38.084Z,99.90
2019-04-16T02:22:12.572Z,99.90
2019-04-16T02:24:43.212Z,99.90
2019-04-16T02:27:14.915Z,99.90
2019-04-16T02:29:49.449Z,99.90
2019-04-16T02:32:21.311Z,99.90
2019-04-16T02:35:02.762Z,99.90
2019-04-16T02:37:36.588Z,99.90
2019-04-16T02:40:18.305Z,99.90
2019-04-16T02:42:48.190Z,99.90
2019-04-16T02:45:24.576Z,99.90
2019-04-16T02:47:56.524Z,99.90
2019-04-16T02:50:40.191Z,99.90
2019-04-16T02:53:29.489Z,99.90
2019-04-16T02:56:38.667Z,99.90
2019-04-16T02:59:29.574Z,99.90
2019-04-16T03:02:22.693Z,99.90
2019-04-16T03:04:59.264Z,99.90
2019-04-16T03:07:32.758Z,99.90
2019-04-16T03:10:04.884Z,99.90
2019-04-16T03:12:36.759Z,99.90
2019-04-16T03:15:08.775Z,99.90
2019-04-16T03:17:44.638Z,99.90
2019-04-16T03:20:20.940Z,99.90
2019-04-16T03:22:54.452Z,99.90
2019-04-16T03:25:26.321Z,99.90
2019-04-16T03:27:58.116Z,99.90
2019-04-16T03:30:29.893Z,99.90
2019-04-16T03:33:10.400Z,99.90
2019-04-16T03:35:35.249Z,99.90
2019-04-16T03:38:06.839Z,99.90
2019-04-16T03:40:38.891Z,99.90
2019-04-16T03:43:10.571Z,99.90
2019-04-16T03:45:42.327Z,99.90
2019-04-16T03:48:14.143Z,99.90
2019-04-16T03:50:46.202Z,99.90
2019-04-16T03:53:18.467Z,99.90
2019-04-16T03:55:50.340Z,99.90
2019-04-16T03:58:22.121Z,99.90
2019-04-16T04:00:54.058Z,99.90
2019-04-16T04:03:26.822Z,99.90
2019-04-16T04:05:58.866Z,99.90
2019-04-16T04:08:30.582Z,99.90
2019-04-16T04:11:02.237Z,99.90
2019-04-16T04:13:34.234Z,99.90
2019-04-16T04:16:06.343Z,99.90
2019-04-16T04:18:42.943Z,99.90
2019-04-16T04:21:11.647Z,99.90
2019-04-16T04:23:43.736Z,99.90
2019-04-16T04:26:15.873Z,99.90
2019-04-16T04:28:53.824Z,99.90
2019-04-16T04:31:25.956Z,99.90
2019-04-16T04:34:09.967Z,99.90
2019-04-16T04:36:41.335Z,99.90
2019-04-16T04:39:15.675Z,99.90
2019-04-16T04:41:46.844Z,99.90
2019-04-16T04:44:21.791Z,99.90
2019-04-16T04:46:53.880Z,99.90
2019-04-16T04:49:32.478Z,99.90
2019-04-16T04:52:04.305Z,99.90
2019-04-16T04:54:42.203Z,99.90
2019-04-16T04:57:14.216Z,99.90
2019-04-16T04:59:52.271Z,99.90
2019-04-16T05:02:24.212Z,99.90
2019-04-16T05:05:24.731Z,99.90
2019-04-16T05:07:52.729Z,99.90
2019-04-16T05:10:24.957Z,99.90
2019-04-16T05:12:57.031Z,99.90
2019-04-16T05:15:29.449Z,99.90
2019-04-16T05:18:02.130Z,99.90
2019-04-16T05:20:34.013Z,99.90
2019-04-16T05:23:08.963Z,99.90
2019-04-16T05:25:41.417Z,99.90
2019-04-16T05:28:13.537Z,99.90
2019-04-16T05:30:52.185Z,99.90
2019-04-16T05:33:25.032Z,99.90
2019-04-16T05:36:04.221Z,99.90
2019-04-16T05:38:36.220Z,99.90
2019-04-16T05:41:22.298Z,99.90
2019-04-16T05:43:52.209Z,99.90
2019-04-16T05:46:24.271Z,99.90
2019-04-16T05:48:56.263Z,99.90
2019-04-16T05:51:42.348Z,99.90
2019-04-16T05:54:34.328Z,99.90
2019-04-16T05:57:08.236Z,99.90
2019-04-16T05:59:40.226Z,99.90
2019-04-16T06:02:18.709Z,99.90
2019-04-16T06:04:55.617Z,99.90
2019-04-16T06:07:24.816Z,99.90
2019-04-16T06:09:56.744Z,99.90
2019-04-16T06:12:39.592Z,99.90
2019-04-16T06:15:22.448Z,99.90
2019-04-16T06:18:18.291Z,99.90
2019-04-16T06:20:55.816Z,99.90
2019-04-16T06:23:38.798Z,99.90
2019-04-16T06:26:30.088Z,99.90
2019-04-16T06:29:18.331Z,99.90
2019-04-16T06:32:01.829Z,99.90
2019-04-16T06:34:53.173Z,99.90
2019-04-16T06:38:00.343Z,99.90
2019-04-16T06:40:38.741Z,99.90
2019-04-16T06:43:26.277Z,99.90
2019-04-16T06:46:26.180Z,99.90
2019-04-16T06:49:19.786Z,99.90
2019-04-16T06:52:03.589Z,99.90
2019-04-16T06:54:53.176Z,99.90
2019-04-16T06:57:43.068Z,99.90
2019-04-16T07:00:35.034Z,99.90
2019-04-16T07:03:40.619Z,99.90
2019-04-16T07:06:29.948Z,99.90
2019-04-16T07:09:25.619Z,99.90
2019-04-16T07:11:56.854Z,99.90
2019-04-16T07:14:28.618Z,99.90
2019-04-16T07:17:00.823Z,99.90
2019-04-16T07:19:32.553Z,99.90
2019-04-16T07:22:05.349Z,99.90
2019-04-16T07:24:41.278Z,99.90
2019-04-16T07:27:19.612Z,99.90
2019-04-16T07:30:05.150Z,99.90
2019-04-16T07:32:47.715Z,99.90
2019-04-16T07:35:38.365Z,99.90
2019-04-16T07:38:16.682Z,99.90
2019-04-16T07:41:10.768Z,99.90
2019-04-16T07:44:04.489Z,99.90
2019-04-16T07:47:04.585Z,99.90
2019-04-16T07:50:01.502Z,99.90
2019-04-16T07:52:49.409Z,99.90
2019-04-16T07:55:39.645Z,99.90
2019-04-16T07:58:12.446Z,99.90
2019-04-16T08:01:01.834Z,99.90
2019-04-16T08:03:33.701Z,99.90
2019-04-16T08:06:05.744Z,99.90
2019-04-16T08:08:37.489Z,99.90
2019-04-16T08:11:23.023Z,99.90
2019-04-16T08:13:54.499Z,99.90
2019-04-16T08:16:30.035Z,99.90
2019-04-16T08:19:02.212Z,99.90
2019-04-16T08:21:37.408Z,99.90
2019-04-16T08:24:14.727Z,99.90
2019-04-16T08:26:47.012Z,99.90
2019-04-16T08:29:19.144Z,99.90
2019-04-16T08:31:57.079Z,99.90
2019-04-16T08:34:30.189Z,99.90
2019-04-16T08:37:10.316Z,99.90
2019-04-16T08:39:42.062Z,99.90
2019-04-16T08:42:24.158Z,99.90
2019-04-16T08:44:53.298Z,99.90
2019-04-16T08:47:32.314Z,99.90
2019-04-16T08:50:06.142Z,99.90
2019-04-16T08:52:41.859Z,99.90
2019-04-16T08:55:12.697Z,99.90
2019-04-16T08:57:46.900Z,99.90
2019-04-16T09:00:19.582Z,99.90
2019-04-16T09:03:04.293Z,99.70
2019-04-16T09:05:41.334Z,99.40
2019-04-16T09:08:28.015Z,99.90
2019-04-16T09:11:03.389Z,99.90
2019-04-16T09:13:41.131Z,99.90
2019-04-16T09:16:12.853Z,99.90
2019-04-16T09:18:53.133Z,99.90
2019-04-16T09:21:36.736Z,99.90
2019-04-16T09:24:25.527Z,99.90
2019-04-16T09:27:07.009Z,99.90
2019-04-16T09:30:00.873Z,99.90
2019-04-16T09:32:48.976Z,99.90
2019-04-16T09:35:28.281Z,99.90
2019-04-16T09:38:22.096Z,99.90
2019-04-16T09:41:16.881Z,99.90
2019-04-16T09:43:53.826Z,99.90
2019-04-16T09:46:48.816Z,99.90
2019-04-16T09:48:56.959Z,99.90
2019-04-16T09:51:30.835Z,99.90
2019-04-16T09:54:03.358Z,99.90
2019-04-16T09:56:35.503Z,99.90
2019-04-16T09:59:18.966Z,99.90
2019-04-16T10:01:56.517Z,99.90
2019-04-16T10:04:28.399Z,99.90
2019-04-16T10:07:00.228Z,99.90
2019-04-16T10:09:34.350Z,99.90
2019-04-16T10:12:07.759Z,99.90
2019-04-16T10:14:40.614Z,99.90
2019-04-16T10:17:12.228Z,99.90
2019-04-16T10:19:44.068Z,99.90
2019-04-16T10:22:16.244Z,99.90
2019-04-16T10:25:06.104Z,99.90
2019-04-16T10:27:42.898Z,99.90
2019-04-16T10:30:51.698Z,99.90
2019-04-16T10:33:23.761Z,99.90
2019-04-16T10:36:04.668Z,99.60
2019-04-16T10:38:56.404Z,99.30
2019-04-16T10:41:49.901Z,99.90
2019-04-16T10:44:43.260Z,99.70
2019-04-16T10:47:43.061Z,99.60
2019-04-16T10:50:28.129Z,98.30
2019-04-16T10:53:07.907Z,97.90
2019-04-16T10:55:50.667Z,95.30
2019-04-16T10:58:40.036Z,93.90
2019-04-16T11:01:21.503Z,92.90
2019-04-16T11:04:17.706Z,92.00
2019-04-16T11:06:51.133Z,93.20
2019-04-16T11:09:22.588Z,87.40
2019-04-16T11:11:54.523Z,87.30
2019-04-16T11:14:26.463Z,88.40
2019-04-16T11:16:58.479Z,81.20
2019-04-16T11:19:30.176Z,81.00
2019-04-16T11:22:04.018Z,77.80
2019-04-16T11:24:36.521Z,75.30
2019-04-16T11:27:09.779Z,77.10
2019-04-16T11:29:42.715Z,76.30
2019-04-16T11:32:16.480Z,80.50
2019-04-16T11:34:49.363Z,82.10
2019-04-16T11:37:21.379Z,87.80
2019-04-16T11:39:53.542Z,82.00
2019-04-16T11:42:25.636Z,82.30
2019-04-16T11:44:57.452Z,82.50
2019-04-16T11:47:33.799Z,83.10
2019-04-16T11:50:03.289Z,82.20
2019-04-16T11:52:35.499Z,81.70
2019-04-16T11:55:07.385Z,82.50
2019-04-16T11:57:39.282Z,83.20
2019-04-16T12:00:14.462Z,84.70
2019-04-16T12:03:04.657Z,87.20
2019-04-16T12:05:54.469Z,85.00
2019-04-16T12:08:54.759Z,83.90
2019-04-16T12:11:45.591Z,86.70
2019-04-16T12:14:45.542Z,81.70
2019-04-16T12:17:29.671Z,82.80
2019-04-16T12:20:32.680Z,79.30
2019-04-16T12:23:16.418Z,75.30
2019-04-16T12:26:10.890Z,74.50
2019-04-16T12:29:11.695Z,67.00
2019-04-16T12:32:20.553Z,69.70
2019-04-16T12:35:18.658Z,71.60
2019-04-16T12:38:17.977Z,76.70
2019-04-16T12:40:57.694Z,75.00
2019-04-16T12:43:36.391Z,66.90
2019-04-16T12:46:22.761Z,71.00
2019-04-16T12:49:19.520Z,70.20
2019-04-16T12:51:55.456Z,73.60
2019-04-16T12:54:44.869Z,75.50
2019-04-16T12:57:30.048Z,71.50
2019-04-16T13:00:26.032Z,67.80
2019-04-16T13:03:16.368Z,68.00
2019-04-16T13:06:12.537Z,73.70
2019-04-16T13:09:02.926Z,72.70
2019-04-16T13:11:58.969Z,72.90
2019-04-16T13:14:59.833Z,68.50
2019-04-16T13:17:47.908Z,70.40
2019-04-16T13:20:38.323Z,75.60
2019-04-16T13:23:30.014Z,76.60
2019-04-16T13:26:11.817Z,72.80
2019-04-16T13:28:42.163Z,72.80
2019-04-16T13:31:14.938Z,71.30
2019-04-16T13:33:47.206Z,69.80
2019-04-16T13:36:20.091Z,69.30
2019-04-16T13:38:57.519Z,70.00
2019-04-16T13:41:30.451Z,73.00
2019-04-16T13:44:09.245Z,74.70
2019-04-16T13:46:41.711Z,83.40
2019-04-16T13:49:33.993Z,82.30
2019-04-16T13:52:06.246Z,82.10
2019-04-16T13:54:56.151Z,77.80
2019-04-16T13:57:31.617Z,78.40
2019-04-16T14:00:12.983Z,85.90
2019-04-16T14:02:56.370Z,86.10
2019-04-16T14:05:28.960Z,83.60
2019-04-16T14:08:05.539Z,84.70
2019-04-16T14:10:37.969Z,84.30
2019-04-16T14:13:18.147Z,84.20
2019-04-16T14:15:50.106Z,83.30
2019-04-16T14:18:26.101Z,82.50
2019-04-16T14:20:58.424Z,83.20
2019-04-16T14:23:38.545Z,90.00
2019-04-16T14:26:10.419Z,92.60
2019-04-16T14:28:56.729Z,95.70
2019-04-16T14:31:28.211Z,97.20
2019-04-16T14:34:12.307Z,98.80
2019-04-16T14:36:45.109Z,99.90
2019-04-16T14:39:27.164Z,99.90
2019-04-16T14:41:58.931Z,99.90
2019-04-16T14:44:37.060Z,99.90
2019-04-16T14:47:08.971Z,99.90
2019-04-16T14:49:40.723Z,99.90
2019-04-16T14:52:12.669Z,99.90
2019-04-16T14:55:06.783Z,99.90
2019-04-16T14:57:57.690Z,99.90
2019-04-16T15:00:57.374Z,99.90
2019-04-16T15:03:43.289Z,99.90
2019-04-16T15:06:36.532Z,99.90
2019-04-16T15:09:20.118Z,99.90
2019-04-16T15:12:19.785Z,99.90
2019-04-16T15:15:08.781Z,99.90
2019-04-16T15:18:00.831Z,99.90
2019-04-16T15:21:03.162Z,99.90
2019-04-16T15:23:52.882Z,99.90
2019-04-16T15:26:43.415Z,99.90
2019-04-16T15:29:20.839Z,99.90
2019-04-16T15:32:05.554Z,99.90
2019-04-16T15:34:43.022Z,99.90
2019-04-16T15:37:25.855Z,99.90
2019-04-16T15:40:06.968Z,99.90
2019-04-16T15:42:53.252Z,99.90
2019-04-16T15:45:44.264Z,99.90
2019-04-16T15:48:38.143Z,99.90
2019-04-16T15:51:31.946Z,99.90
2019-04-16T15:54:24.471Z,99.90
2019-04-16T15:57:21.269Z,99.90
2019-04-16T15:59:59.707Z,99.90
2019-04-16T16:03:06.160Z,99.90
2019-04-16T16:05:44.201Z,99.90
2019-04-16T16:08:26.896Z,99.90
2019-04-16T16:11:02.476Z,99.90
2019-04-16T16:13:35.112Z,99.90
2019-04-16T16:16:10.120Z,99.90
2019-04-16T16:18:41.387Z,99.90
2019-04-16T16:21:14.195Z,99.90
2019-04-16T16:23:46.916Z,99.90
2019-04-16T16:26:19.894Z,99.90
2019-04-16T16:28:51.988Z,99.90
2019-04-16T16:31:24.717Z,99.90
2019-04-16T16:33:58.899Z,99.90
2019-04-16T16:36:30.735Z,99.90
2019-04-16T16:39:03.658Z,99.90
2019-04-16T16:41:35.771Z,99.90
2019-04-16T16:44:07.809Z,99.90
2019-04-16T16:46:58.395Z,99.90
2019-04-16T16:49:32.480Z,99.90
2019-04-16T16:52:33.320Z,99.90
2019-04-16T16:55:16.362Z,99.90
2019-04-16T16:57:53.581Z,99.90
2019-04-16T17:00:43.860Z,99.90
2019-04-16T17:03:23.915Z,99.90
2019-04-16T17:05:57.074Z,99.90
2019-04-16T17:08:31.013Z,99.90
2019-04-16T17:11:16.291Z,99.90
2019-04-16T17:13:37.167Z,99.90
2019-04-16T17:16:13.255Z,99.90
2019-04-16T17:18:45.407Z,99.90
2019-04-16T17:21:17.348Z,99.90
2019-04-16T17:23:49.823Z,99.90
2019-04-16T17:26:22.940Z,99.90
2019-04-16T17:28:55.443Z,99.90
2019-04-16T17:31:27.905Z,99.90
2019-04-16T17:34:02.153Z,99.90
2019-04-16T17:36:37.885Z,99.90
2019-04-16T17:39:11.644Z,99.90
2019-04-16T17:41:50.021Z,99.90
2019-04-16T17:44:47.169Z,99.90
2019-04-16T17:47:40.940Z,99.90
2019-04-16T17:50:39.339Z,99.90
2019-04-16T17:53:26.217Z,99.90
2019-04-16T17:56:21.039Z,99.90
2019-04-16T17:58:59.343Z,99.90
2019-04-16T18:01:50.397Z,99.90
2019-04-16T18:04:44.481Z,99.90
2019-04-16T18:07:36.650Z,99.90
2019-04-16T18:10:22.787Z,99.90
2019-04-16T18:13:34.089Z,99.90
2019-04-16T18:16:23.714Z,99.90
2019-04-16T18:19:13.140Z,99.90
2019-04-16T18:21:52.163Z,99.90
2019-04-16T18:24:42.716Z,99.90
2019-04-16T18:27:37.763Z,99.90
2019-04-16T18:30:38.841Z,99.90
2019-04-16T18:33:30.441Z,99.90
2019-04-16T18:36:14.185Z,99.90
2019-04-16T18:39:05.248Z,99.90
2019-04-16T18:41:43.751Z,99.90
2019-04-16T18:44:33.602Z,99.90
2019-04-16T18:47:30.912Z,99.90
2019-04-16T18:50:06.421Z,99.90
2019-04-16T18:52:38.841Z,99.90
2019-04-16T18:55:11.981Z,99.90
2019-04-16T18:57:47.919Z,99.90
2019-04-16T19:00:45.367Z,99.90
2019-04-16T19:03:18.190Z,99.90
2019-04-16T19:05:50.206Z,99.90
2019-04-16T19:08:23.329Z,99.90
2019-04-16T19:10:55.364Z,99.90
2019-04-16T19:13:27.824Z,99.90
2019-04-16T19:16:01.927Z,99.90
2019-04-16T19:18:34.817Z,99.90
2019-04-16T19:21:11.927Z,99.90
2019-04-16T19:23:41.698Z,99.90
2019-04-16T19:26:14.182Z,99.90
2019-04-16T19:28:55.477Z,99.90
2019-04-16T19:31:27.971Z,99.90
2019-04-16T19:34:00.457Z,99.90
2019-04-16T19:36:32.782Z,99.90
2019-04-16T19:39:15.412Z,99.90
2019-04-16T19:41:47.647Z,99.90
2019-04-16T19:44:20.032Z,99.90
2019-04-16T19:46:54.243Z,99.90
2019-04-16T19:49:44.166Z,99.90
2019-04-16T19:52:17.278Z,99.90
2019-04-16T19:54:50.125Z,99.90
2019-04-16T19:57:22.868Z,99.90
2019-04-16T19:59:56.796Z,99.90
2019-04-16T20:02:32.978Z,99.90
2019-04-16T20:05:05.485Z,99.90
2019-04-16T20:07:37.815Z,99.90
2019-04-16T20:10:16.650Z,99.90
2019-04-16T20:12:48.782Z,99.90
2019-04-16T20:15:21.641Z,99.90
2019-04-16T20:17:54.084Z,99.90
2019-04-16T20:20:31.485Z,99.90
2019-04-16T20:23:03.951Z,99.90
2019-04-16T20:25:42.867Z,99.90
2019-04-16T20:28:16.280Z,99.90
2019-04-16T20:31:03.245Z,99.90
2019-04-16T20:33:33.356Z,99.90
2019-04-16T20:36:08.802Z,99.90
2019-04-16T20:38:46.270Z,99.90
2019-04-16T20:41:18.982Z,99.90
2019-04-16T20:43:51.022Z,99.90
2019-04-16T20:46:29.452Z,99.90
2019-04-16T20:49:09.624Z,99.90
2019-04-16T20:51:39.257Z,99.90
2019-04-16T20:54:13.741Z,99.90
2019-04-16T20:56:53.271Z,99.90
2019-04-16T20:59:24.296Z,99.90
2019-04-16T21:01:59.628Z,99.90
2019-04-16T21:04:32.333Z,99.90
2019-04-16T21:07:14.347Z,99.90
2019-04-16T21:09:43.706Z,99.90
2019-04-16T21:12:17.881Z,99.90
2019-04-16T21:14:50.938Z,99.90
2019-04-16T21:17:32.054Z,99.90
2019-04-16T21:20:06.085Z,99.90
2019-04-16T21:22:41.483Z,99.90
2019-04-16T21:25:13.982Z,99.90
2019-04-16T21:28:07.862Z,99.90
2019-04-16T21:30:43.322Z,99.90
2019-04-16T21:33:23.904Z,99.90
2019-04-16T21:36:03.069Z,99.90
2019-04-16T21:38:49.975Z,99.90
2019-04-16T21:41:22.318Z,99.90
2019-04-16T21:43:54.496Z,99.90
2019-04-16T21:46:26.827Z,99.90
2019-04-16T21:49:00.876Z,99.90
2019-04-16T21:51:33.108Z,99.90
2019-04-16T21:54:06.856Z,99.90
2019-04-16T21:56:39.747Z,99.90
2019-04-16T21:59:12.750Z,99.90
2019-04-16T22:01:47.248Z,99.90
2019-04-16T22:04:19.418Z,99.90
2019-04-16T22:06:52.619Z,99.90
2019-04-16T22:09:25.127Z,99.90
2019-04-16T22:11:57.417Z,99.90
2019-04-16T22:14:29.597Z,99.90
2019-04-16T22:17:04.181Z,99.90
2019-04-16T22:19:35.377Z,99.90
2019-04-16T22:22:07.707Z,99.90
2019-04-16T22:24:39.687Z,99.90
2019-04-16T22:27:11.833Z,99.90
2019-04-16T22:29:56.434Z,99.90
2019-04-16T22:32:30.854Z,99.90
2019-04-16T22:35:02.377Z,99.90
2019-04-16T22:37:34.380Z,99.90
2019-04-16T22:40:29.288Z,99.90
2019-04-16T22:43:19.099Z,99.90
2019-04-16T22:46:05.393Z,99.90
2019-04-16T22:48:37.116Z,99.90
2019-04-16T22:51:10.117Z,99.90
2019-04-16T22:53:42.491Z,99.90
2019-04-16T22:56:14.074Z,99.90
2019-04-16T22:58:49.592Z,99.90
2019-04-16T23:01:23.280Z,99.90
2019-04-16T23:03:55.233Z,99.90
2019-04-16T23:06:27.321Z,99.90
2019-04-16T23:08:59.497Z,99.90
2019-04-16T23:11:31.285Z,99.90
2019-04-16T23:14:03.998Z,99.90
2019-04-16T23:16:36.073Z,99.90
2019-04-16T23:19:07.981Z,99.90
2019-04-16T23:21:42.542Z,99.90
2019-04-16T23:24:13.473Z,99.90
2019-04-16T23:26:45.484Z,99.90
2019-04-16T23:29:17.575Z,99.90
2019-04-16T23:31:57.955Z,99.90
2019-04-16T23:34:29.876Z,99.90
2019-04-16T23:37:04.905Z,99.90
2019-04-16T23:39:39.804Z,99.90
2019-04-16T23:42:18.846Z,99.90
2019-04-16T23:45:07.782Z,99.90
2019-04-16T23:48:15.500Z,99.90
2019-04-16T23:50:53.485Z,99.90
2019-04-16T23:53:53.786Z,99.90
2019-04-16T23:56:32.546Z,99.90
2019-04-16T23:59:15.137Z,99.90
